Česky Dansk Deutsch English Español Suomi Français Magyar Italiano Nederlands norsk Polski Português svenska Türkçe

 

Het Weer

Portoroz (Slovenië)

00:30, 20 augustus 2016 (GMT)

NWNNE
WE
SWSSE
Home            
Portoroz Portoroz / Secovlje Trieste Ronchi Dei Legionari Pula Aerodrome Udine / Campoformido Udine / Rivolto Rijeka / Omisalj Aviano Usaf Aviano Venezia / Tessera Ljubljana / Brnik Treviso / S. Angelo Tarvisio Treviso / Istrana Losinj Island Dova Area Control Center Klagenfurt-Flughafen Punta Marina Vicenza Passo Rolle Dobbiaco Ferrara

Om een weerknop op uw website of weblog te plaatsen, copieer onderstaande code en plak die in uw pagina. In het eerste vakje staat HTML-code, in het tweede vakje UBB-code.


Add to Google

Details

Wind speed:2 bf, 4 kn, 2.1 m/s, 4.6 miles/h, 7.4 km/h
Wind direction:ESE, 120°
Visibility:Greater than 10000 m, 10 km, 32800 ft, 6.2 miles
Temperature:19°C, 66°F
Dew-point:18°C, 64°F
Atmospheric pressure:1014 hPa, 760.6 mmHg, 29.94 inHg, 1.001 atm
Relative humidity:93.9 %
METAR:LJPZ 200030Z AUTO 12004KT 9999 NCD 19/18 Q1014

Snelkoppelingen

Actuele weersinformatie van de hele wereld. Voeg locaties toe met het plus (+) symbool. Deze snelkoppelingen kunnen worden toegevoegd aan Google.

Lid van de Technetium groep

website free tracking
StatCounter NetStat W3C Validator

15-08-2022 09:36:16
astro.technetium.be money.technetium.be phote.technetium.be tafeltennistafel.technetium.be www.ligfiets.net